Terminal Aerodrome Forecast
Issued by NWS

Home | Current Version | Previous Version | Text Only | Print | Product List | Glossary On
Versions: 1 2 3 4 5 6 7 8 9 10 11 12 13 14 15 16
000
FTUS45 KTFX 210500
TAFHVR
TAF
KHVR 210532Z 2106/2206 22009KT P6SM SCT120
     FM211200 22008KT P6SM VCSH SCT030 BKN050
      TEMPO 2112/2114 -FZRA BKN030
     FM211400 25011KT P6SM VCSH OVC040
      TEMPO 2114/2118 -SHRA BKN025
     FM212000 25015G25KT P6SM OVC080=

USA.gov is the U.S. government's official web portal to all federal, state and local government web resources and services.